sensor_id;sensor_type;location;lat;lon;timestamp;P1;durP1;ratioP1;P2;durP2;ratioP2
75890;SDS011;64571;47.512;19.054;2023-09-08T00:00:11;10.03;;;5.73;;
75890;SDS011;64571;47.512;19.054;2023-09-08T00:03:14;14.18;;;5.70;;
75890;SDS011;64571;47.512;19.054;2023-09-08T00:06:17;11.77;;;5.53;;
75890;SDS011;64571;47.512;19.054;2023-09-08T00:09:19;11.95;;;5.57;;
75890;SDS011;64571;47.512;19.054;2023-09-08T00:12:22;10.77;;;5.45;;
75890;SDS011;64571;47.512;19.054;2023-09-08T00:15:25;9.87;;;5.60;;
75890;SDS011;64571;47.512;19.054;2023-09-08T00:18:27;11.98;;;5.35;;
75890;SDS011;64571;47.512;19.054;2023-09-08T00:21:30;11.45;;;5.57;;
75890;SDS011;64571;47.512;19.054;2023-09-08T00:24:32;13.75;;;6.05;;
75890;SDS011;64571;47.512;19.054;2023-09-08T00:27:35;12.45;;;5.68;;
75890;SDS011;64571;47.512;19.054;2023-09-08T00:30:38;10.63;;;5.50;;
75890;SDS011;64571;47.512;19.054;2023-09-08T00:33:40;11.20;;;5.90;;
75890;SDS011;64571;47.512;19.054;2023-09-08T00:36:46;9.60;;;5.32;;
75890;SDS011;64571;47.512;19.054;2023-09-08T00:39:49;10.15;;;5.45;;
75890;SDS011;64571;47.512;19.054;2023-09-08T00:42:51;13.80;;;5.90;;
75890;SDS011;64571;47.512;19.054;2023-09-08T00:45:54;11.17;;;4.93;;
75890;SDS011;64571;47.512;19.054;2023-09-08T00:48:57;9.48;;;5.72;;
75890;SDS011;64571;47.512;19.054;2023-09-08T00:52:00;13.77;;;5.90;;
75890;SDS011;64571;47.512;19.054;2023-09-08T00:55:03;9.80;;;4.90;;
75890;SDS011;64571;47.512;19.054;2023-09-08T00:58:06;11.50;;;5.40;;
75890;SDS011;64571;47.512;19.054;2023-09-08T01:01:09;10.73;;;5.07;;
75890;SDS011;64571;47.512;19.054;2023-09-08T01:04:11;10.80;;;4.97;;
75890;SDS011;64571;47.512;19.054;2023-09-08T01:07:14;7.80;;;4.65;;
75890;SDS011;64571;47.512;19.054;2023-09-08T01:10:18;9.25;;;5.20;;
75890;SDS011;64571;47.512;19.054;2023-09-08T01:13:20;9.00;;;5.43;;
75890;SDS011;64571;47.512;19.054;2023-09-08T01:16:23;10.67;;;5.67;;
75890;SDS011;64571;47.512;19.054;2023-09-08T01:19:26;11.68;;;5.10;;
75890;SDS011;64571;47.512;19.054;2023-09-08T01:26:17;9.15;;;5.07;;
75890;SDS011;64571;47.512;19.054;2023-09-08T01:29:23;10.50;;;5.37;;
75890;SDS011;64571;47.512;19.054;2023-09-08T01:32:29;10.87;;;5.27;;
75890;SDS011;64571;47.512;19.054;2023-09-08T01:35:32;10.13;;;5.45;;
75890;SDS011;64571;47.512;19.054;2023-09-08T01:38:35;10.95;;;5.50;;
75890;SDS011;64571;47.512;19.054;2023-09-08T01:41:38;10.15;;;6.05;;
75890;SDS011;64571;47.512;19.054;2023-09-08T01:44:41;10.35;;;5.35;;
75890;SDS011;64571;47.512;19.054;2023-09-08T01:47:45;9.57;;;4.97;;
75890;SDS011;64571;47.512;19.054;2023-09-08T01:50:47;9.63;;;5.28;;
75890;SDS011;64571;47.512;19.054;2023-09-08T01:53:50;10.63;;;5.50;;
75890;SDS011;64571;47.512;19.054;2023-09-08T01:56:53;8.88;;;4.47;;
75890;SDS011;64571;47.512;19.054;2023-09-08T01:59:55;12.20;;;6.07;;
75890;SDS011;64571;47.512;19.054;2023-09-08T02:02:58;11.73;;;5.73;;
75890;SDS011;64571;47.512;19.054;2023-09-08T02:06:02;10.57;;;5.50;;
75890;SDS011;64571;47.512;19.054;2023-09-08T02:09:05;9.77;;;5.60;;
75890;SDS011;64571;47.512;19.054;2023-09-08T02:12:08;10.73;;;5.53;;
75890;SDS011;64571;47.512;19.054;2023-09-08T02:15:10;10.35;;;5.93;;
75890;SDS011;64571;47.512;19.054;2023-09-08T02:18:13;11.53;;;5.80;;
75890;SDS011;64571;47.512;19.054;2023-09-08T02:21:16;9.02;;;4.82;;
75890;SDS011;64571;47.512;19.054;2023-09-08T02:24:19;9.90;;;5.45;;
75890;SDS011;64571;47.512;19.054;2023-09-08T02:27:21;11.88;;;5.72;;
75890;SDS011;64571;47.512;19.054;2023-09-08T02:30:24;10.18;;;5.28;;
75890;SDS011;64571;47.512;19.054;2023-09-08T02:33:28;10.73;;;5.83;;
75890;SDS011;64571;47.512;19.054;2023-09-08T02:36:31;10.35;;;5.45;;
75890;SDS011;64571;47.512;19.054;2023-09-08T02:39:35;10.38;;;5.53;;
75890;SDS011;64571;47.512;19.054;2023-09-08T02:42:38;10.70;;;5.47;;
75890;SDS011;64571;47.512;19.054;2023-09-08T02:45:41;11.10;;;6.18;;
75890;SDS011;64571;47.512;19.054;2023-09-08T02:48:44;10.40;;;5.87;;
75890;SDS011;64571;47.512;19.054;2023-09-08T02:51:47;13.10;;;5.18;;
75890;SDS011;64571;47.512;19.054;2023-09-08T02:54:49;11.38;;;5.15;;
75890;SDS011;64571;47.512;19.054;2023-09-08T02:57:53;12.18;;;4.70;;
75890;SDS011;64571;47.512;19.054;2023-09-08T03:00:55;9.98;;;5.85;;
75890;SDS011;64571;47.512;19.054;2023-09-08T03:03:59;10.27;;;5.43;;
75890;SDS011;64571;47.512;19.054;2023-09-08T03:07:02;9.57;;;5.55;;
75890;SDS011;64571;47.512;19.054;2023-09-08T03:10:05;10.45;;;5.50;;
75890;SDS011;64571;47.512;19.054;2023-09-08T03:13:08;9.95;;;5.60;;
75890;SDS011;64571;47.512;19.054;2023-09-08T03:16:11;11.90;;;5.62;;
75890;SDS011;64571;47.512;19.054;2023-09-08T03:19:14;11.77;;;6.30;;
75890;SDS011;64571;47.512;19.054;2023-09-08T03:22:16;12.05;;;5.68;;
75890;SDS011;64571;47.512;19.054;2023-09-08T03:25:19;11.35;;;5.70;;
75890;SDS011;64571;47.512;19.054;2023-09-08T03:28:21;9.60;;;5.12;;
75890;SDS011;64571;47.512;19.054;2023-09-08T03:31:24;12.00;;;5.93;;
75890;SDS011;64571;47.512;19.054;2023-09-08T03:34:27;9.37;;;5.30;;
75890;SDS011;64571;47.512;19.054;2023-09-08T03:37:29;9.23;;;5.22;;
75890;SDS011;64571;47.512;19.054;2023-09-08T03:40:32;10.95;;;5.82;;
75890;SDS011;64571;47.512;19.054;2023-09-08T03:43:35;9.85;;;5.75;;
75890;SDS011;64571;47.512;19.054;2023-09-08T03:46:38;11.18;;;6.00;;
75890;SDS011;64571;47.512;19.054;2023-09-08T03:49:40;13.23;;;5.67;;
75890;SDS011;64571;47.512;19.054;2023-09-08T03:52:43;9.38;;;5.15;;
75890;SDS011;64571;47.512;19.054;2023-09-08T03:55:46;10.73;;;6.00;;
75890;SDS011;64571;47.512;19.054;2023-09-08T03:58:49;15.07;;;5.72;;
75890;SDS011;64571;47.512;19.054;2023-09-08T04:01:51;10.48;;;5.65;;
75890;SDS011;64571;47.512;19.054;2023-09-08T04:04:54;10.47;;;5.57;;
75890;SDS011;64571;47.512;19.054;2023-09-08T04:07:56;12.55;;;5.85;;
75890;SDS011;64571;47.512;19.054;2023-09-08T04:10:59;9.63;;;5.12;;
75890;SDS011;64571;47.512;19.054;2023-09-08T04:14:01;9.73;;;5.45;;
75890;SDS011;64571;47.512;19.054;2023-09-08T04:17:04;13.43;;;6.37;;
75890;SDS011;64571;47.512;19.054;2023-09-08T04:20:07;16.13;;;6.03;;
75890;SDS011;64571;47.512;19.054;2023-09-08T04:23:11;16.95;;;6.37;;
75890;SDS011;64571;47.512;19.054;2023-09-08T04:26:13;14.02;;;6.32;;
75890;SDS011;64571;47.512;19.054;2023-09-08T04:29:16;12.40;;;6.10;;
75890;SDS011;64571;47.512;19.054;2023-09-08T04:32:18;13.88;;;6.07;;
75890;SDS011;64571;47.512;19.054;2023-09-08T04:35:21;10.53;;;6.30;;
75890;SDS011;64571;47.512;19.054;2023-09-08T04:38:24;12.85;;;5.68;;
75890;SDS011;64571;47.512;19.054;2023-09-08T04:41:27;13.15;;;6.00;;
75890;SDS011;64571;47.512;19.054;2023-09-08T04:44:31;11.63;;;6.40;;
75890;SDS011;64571;47.512;19.054;2023-09-08T04:47:34;10.98;;;5.60;;
75890;SDS011;64571;47.512;19.054;2023-09-08T04:50:36;10.77;;;5.80;;
75890;SDS011;64571;47.512;19.054;2023-09-08T04:53:40;12.07;;;6.00;;
75890;SDS011;64571;47.512;19.054;2023-09-08T04:56:42;13.65;;;8.00;;
75890;SDS011;64571;47.512;19.054;2023-09-08T04:59:45;21.62;;;7.07;;
75890;SDS011;64571;47.512;19.054;2023-09-08T05:02:48;13.18;;;6.03;;
75890;SDS011;64571;47.512;19.054;2023-09-08T05:05:51;15.50;;;6.63;;
75890;SDS011;64571;47.512;19.054;2023-09-08T05:08:53;10.95;;;6.05;;
75890;SDS011;64571;47.512;19.054;2023-09-08T05:11:57;12.98;;;6.55;;
75890;SDS011;64571;47.512;19.054;2023-09-08T05:15:01;11.63;;;6.30;;
75890;SDS011;64571;47.512;19.054;2023-09-08T05:18:09;12.80;;;6.60;;
75890;SDS011;64571;47.512;19.054;2023-09-08T05:21:12;12.83;;;6.47;;
75890;SDS011;64571;47.512;19.054;2023-09-08T05:24:16;11.52;;;6.70;;
75890;SDS011;64571;47.512;19.054;2023-09-08T05:27:19;12.07;;;6.07;;
75890;SDS011;64571;47.512;19.054;2023-09-08T05:30:22;12.90;;;5.97;;
75890;SDS011;64571;47.512;19.054;2023-09-08T05:33:25;10.55;;;6.18;;
75890;SDS011;64571;47.512;19.054;2023-09-08T05:36:28;13.47;;;6.07;;
75890;SDS011;64571;47.512;19.054;2023-09-08T05:39:32;13.52;;;6.20;;
75890;SDS011;64571;47.512;19.054;2023-09-08T05:42:35;11.32;;;6.82;;
75890;SDS011;64571;47.512;19.054;2023-09-08T05:45:37;12.48;;;6.72;;
75890;SDS011;64571;47.512;19.054;2023-09-08T05:48:40;12.90;;;6.00;;
75890;SDS011;64571;47.512;19.054;2023-09-08T05:51:43;10.97;;;5.90;;
75890;SDS011;64571;47.512;19.054;2023-09-08T05:54:47;11.02;;;6.10;;
75890;SDS011;64571;47.512;19.054;2023-09-08T05:57:50;14.73;;;6.60;;
75890;SDS011;64571;47.512;19.054;2023-09-08T06:00:53;11.55;;;6.30;;
75890;SDS011;64571;47.512;19.054;2023-09-08T06:03:56;15.00;;;6.93;;
75890;SDS011;64571;47.512;19.054;2023-09-08T06:07:00;12.13;;;6.07;;
75890;SDS011;64571;47.512;19.054;2023-09-08T06:10:03;11.07;;;6.45;;
75890;SDS011;64571;47.512;19.054;2023-09-08T06:13:05;13.95;;;6.87;;
75890;SDS011;64571;47.512;19.054;2023-09-08T06:16:10;15.50;;;7.00;;
75890;SDS011;64571;47.512;19.054;2023-09-08T06:19:13;12.70;;;6.95;;
75890;SDS011;64571;47.512;19.054;2023-09-08T06:22:18;15.67;;;7.00;;
75890;SDS011;64571;47.512;19.054;2023-09-08T06:25:21;13.48;;;6.72;;
75890;SDS011;64571;47.512;19.054;2023-09-08T06:28:24;18.50;;;8.35;;
75890;SDS011;64571;47.512;19.054;2023-09-08T06:31:27;10.48;;;6.40;;
75890;SDS011;64571;47.512;19.054;2023-09-08T06:34:29;11.82;;;6.50;;
75890;SDS011;64571;47.512;19.054;2023-09-08T06:37:35;12.00;;;6.60;;
75890;SDS011;64571;47.512;19.054;2023-09-08T06:40:40;11.12;;;6.35;;
75890;SDS011;64571;47.512;19.054;2023-09-08T06:43:43;15.43;;;6.78;;
75890;SDS011;64571;47.512;19.054;2023-09-08T06:46:47;13.25;;;6.68;;
75890;SDS011;64571;47.512;19.054;2023-09-08T06:49:50;11.82;;;6.43;;
75890;SDS011;64571;47.512;19.054;2023-09-08T06:52:53;12.17;;;6.97;;
75890;SDS011;64571;47.512;19.054;2023-09-08T06:55:56;15.10;;;7.12;;
75890;SDS011;64571;47.512;19.054;2023-09-08T06:58:59;12.68;;;6.12;;
75890;SDS011;64571;47.512;19.054;2023-09-08T07:02:02;12.15;;;6.20;;
75890;SDS011;64571;47.512;19.054;2023-09-08T07:05:06;16.60;;;6.10;;
75890;SDS011;64571;47.512;19.054;2023-09-08T07:08:11;13.67;;;7.07;;
75890;SDS011;64571;47.512;19.054;2023-09-08T07:11:13;15.63;;;6.85;;
75890;SDS011;64571;47.512;19.054;2023-09-08T07:14:19;11.60;;;6.70;;
75890;SDS011;64571;47.512;19.054;2023-09-08T07:17:21;12.90;;;6.62;;
75890;SDS011;64571;47.512;19.054;2023-09-08T07:20:26;10.80;;;6.72;;
75890;SDS011;64571;47.512;19.054;2023-09-08T07:23:29;10.47;;;6.33;;
75890;SDS011;64571;47.512;19.054;2023-09-08T07:26:32;10.95;;;6.50;;
75890;SDS011;64571;47.512;19.054;2023-09-08T07:29:35;10.52;;;7.30;;
75890;SDS011;64571;47.512;19.054;2023-09-08T07:32:37;10.40;;;6.70;;
75890;SDS011;64571;47.512;19.054;2023-09-08T07:35:40;12.05;;;6.43;;
75890;SDS011;64571;47.512;19.054;2023-09-08T07:38:43;10.67;;;6.43;;
75890;SDS011;64571;47.512;19.054;2023-09-08T07:41:46;11.88;;;6.60;;
75890;SDS011;64571;47.512;19.054;2023-09-08T07:44:49;11.25;;;6.75;;
75890;SDS011;64571;47.512;19.054;2023-09-08T07:47:52;11.35;;;6.75;;
75890;SDS011;64571;47.512;19.054;2023-09-08T07:50:54;13.30;;;7.03;;
75890;SDS011;64571;47.512;19.054;2023-09-08T07:53:57;14.07;;;6.93;;
75890;SDS011;64571;47.512;19.054;2023-09-08T07:57:00;9.93;;;6.07;;
75890;SDS011;64571;47.512;19.054;2023-09-08T08:00:03;12.37;;;7.32;;
75890;SDS011;64571;47.512;19.054;2023-09-08T08:03:12;11.00;;;6.25;;
75890;SDS011;64571;47.512;19.054;2023-09-08T08:06:15;15.23;;;7.32;;
75890;SDS011;64571;47.512;19.054;2023-09-08T08:09:19;16.97;;;6.53;;
75890;SDS011;64571;47.512;19.054;2023-09-08T08:12:22;12.15;;;6.85;;
75890;SDS011;64571;47.512;19.054;2023-09-08T08:15:34;11.57;;;6.85;;
75890;SDS011;64571;47.512;19.054;2023-09-08T08:18:38;17.30;;;6.43;;
75890;SDS011;64571;47.512;19.054;2023-09-08T08:21:41;14.23;;;6.20;;
75890;SDS011;64571;47.512;19.054;2023-09-08T08:24:45;9.43;;;6.10;;
75890;SDS011;64571;47.512;19.054;2023-09-08T08:27:47;11.98;;;6.18;;
75890;SDS011;64571;47.512;19.054;2023-09-08T08:30:50;17.87;;;6.32;;
75890;SDS011;64571;47.512;19.054;2023-09-08T08:33:53;12.13;;;6.95;;
75890;SDS011;64571;47.512;19.054;2023-09-08T08:36:56;16.15;;;9.90;;
75890;SDS011;64571;47.512;19.054;2023-09-08T08:39:58;18.73;;;11.37;;
75890;SDS011;64571;47.512;19.054;2023-09-08T08:43:01;11.23;;;6.80;;
75890;SDS011;64571;47.512;19.054;2023-09-08T08:46:05;11.90;;;6.18;;
75890;SDS011;64571;47.512;19.054;2023-09-08T08:49:09;16.67;;;6.60;;
75890;SDS011;64571;47.512;19.054;2023-09-08T08:52:13;12.43;;;7.47;;
75890;SDS011;64571;47.512;19.054;2023-09-08T08:55:17;14.83;;;6.57;;
75890;SDS011;64571;47.512;19.054;2023-09-08T08:58:20;11.93;;;7.35;;
75890;SDS011;64571;47.512;19.054;2023-09-08T09:01:27;12.93;;;6.65;;
75890;SDS011;64571;47.512;19.054;2023-09-08T09:04:31;13.15;;;6.03;;
75890;SDS011;64571;47.512;19.054;2023-09-08T09:07:34;14.70;;;6.60;;
75890;SDS011;64571;47.512;19.054;2023-09-08T09:10:38;16.23;;;6.43;;
75890;SDS011;64571;47.512;19.054;2023-09-08T09:13:40;13.18;;;7.32;;
75890;SDS011;64571;47.512;19.054;2023-09-08T09:16:43;10.52;;;6.65;;
75890;SDS011;64571;47.512;19.054;2023-09-08T09:19:46;12.85;;;7.15;;
75890;SDS011;64571;47.512;19.054;2023-09-08T09:22:49;15.10;;;6.57;;
75890;SDS011;64571;47.512;19.054;2023-09-08T09:25:52;11.70;;;6.80;;
75890;SDS011;64571;47.512;19.054;2023-09-08T09:28:54;12.18;;;6.93;;
75890;SDS011;64571;47.512;19.054;2023-09-08T09:32:07;13.57;;;7.30;;
75890;SDS011;64571;47.512;19.054;2023-09-08T09:35:12;14.40;;;6.93;;
75890;SDS011;64571;47.512;19.054;2023-09-08T09:38:15;12.27;;;7.07;;
75890;SDS011;64571;47.512;19.054;2023-09-08T09:41:20;12.23;;;6.70;;
75890;SDS011;64571;47.512;19.054;2023-09-08T09:44:25;13.45;;;6.57;;
75890;SDS011;64571;47.512;19.054;2023-09-08T09:47:29;12.77;;;6.93;;
75890;SDS011;64571;47.512;19.054;2023-09-08T09:50:33;11.43;;;6.40;;
75890;SDS011;64571;47.512;19.054;2023-09-08T09:53:38;13.23;;;6.15;;
75890;SDS011;64571;47.512;19.054;2023-09-08T09:56:44;10.57;;;6.10;;
75890;SDS011;64571;47.512;19.054;2023-09-08T09:59:53;11.12;;;6.85;;
75890;SDS011;64571;47.512;19.054;2023-09-08T10:02:57;12.90;;;6.90;;
75890;SDS011;64571;47.512;19.054;2023-09-08T10:06:02;12.88;;;6.45;;
75890;SDS011;64571;47.512;19.054;2023-09-08T10:09:06;12.37;;;6.93;;
75890;SDS011;64571;47.512;19.054;2023-09-08T10:12:16;18.27;;;6.73;;
75890;SDS011;64571;47.512;19.054;2023-09-08T10:15:22;11.55;;;6.60;;
75890;SDS011;64571;47.512;19.054;2023-09-08T10:18:26;12.75;;;6.80;;
75890;SDS011;64571;47.512;19.054;2023-09-08T10:21:29;16.73;;;7.07;;
75890;SDS011;64571;47.512;19.054;2023-09-08T10:24:35;13.32;;;7.47;;
75890;SDS011;64571;47.512;19.054;2023-09-08T10:27:41;11.87;;;7.73;;
75890;SDS011;64571;47.512;19.054;2023-09-08T10:30:44;13.68;;;7.12;;
75890;SDS011;64571;47.512;19.054;2023-09-08T10:33:48;10.38;;;6.75;;
75890;SDS011;64571;47.512;19.054;2023-09-08T10:36:51;12.45;;;5.70;;
75890;SDS011;64571;47.512;19.054;2023-09-08T10:39:54;10.23;;;5.68;;
75890;SDS011;64571;47.512;19.054;2023-09-08T10:43:10;8.83;;;5.50;;
75890;SDS011;64571;47.512;19.054;2023-09-08T10:46:23;11.82;;;6.32;;
75890;SDS011;64571;47.512;19.054;2023-09-08T10:49:28;10.98;;;6.15;;
75890;SDS011;64571;47.512;19.054;2023-09-08T10:52:37;9.15;;;5.90;;
75890;SDS011;64571;47.512;19.054;2023-09-08T10:55:40;11.45;;;5.78;;
75890;SDS011;64571;47.512;19.054;2023-09-08T10:59:07;9.53;;;5.20;;
75890;SDS011;64571;47.512;19.054;2023-09-08T11:02:53;10.02;;;5.60;;
75890;SDS011;64571;47.512;19.054;2023-09-08T11:05:37;14.20;;;5.03;;
75890;SDS011;64571;47.512;19.054;2023-09-08T11:08:43;8.95;;;5.10;;
75890;SDS011;64571;47.512;19.054;2023-09-08T11:11:46;9.75;;;4.93;;
75890;SDS011;64571;47.512;19.054;2023-09-08T11:14:49;9.27;;;4.53;;
75890;SDS011;64571;47.512;19.054;2023-09-08T11:17:52;8.20;;;4.82;;
75890;SDS011;64571;47.512;19.054;2023-09-08T11:20:55;8.13;;;4.65;;
75890;SDS011;64571;47.512;19.054;2023-09-08T11:23:58;9.40;;;5.22;;
75890;SDS011;64571;47.512;19.054;2023-09-08T11:27:01;11.73;;;5.10;;
75890;SDS011;64571;47.512;19.054;2023-09-08T11:30:05;10.63;;;5.30;;
75890;SDS011;64571;47.512;19.054;2023-09-08T11:33:18;10.35;;;5.28;;
75890;SDS011;64571;47.512;19.054;2023-09-08T11:36:26;8.02;;;5.03;;
75890;SDS011;64571;47.512;19.054;2023-09-08T11:39:30;9.88;;;6.20;;
75890;SDS011;64571;47.512;19.054;2023-09-08T11:42:33;7.93;;;5.30;;
75890;SDS011;64571;47.512;19.054;2023-09-08T11:45:36;8.43;;;5.03;;
75890;SDS011;64571;47.512;19.054;2023-09-08T11:48:39;9.30;;;4.65;;
75890;SDS011;64571;47.512;19.054;2023-09-08T11:51:44;8.43;;;5.30;;
75890;SDS011;64571;47.512;19.054;2023-09-08T11:54:48;10.25;;;4.95;;
75890;SDS011;64571;47.512;19.054;2023-09-08T11:58:07;11.48;;;4.90;;
75890;SDS011;64571;47.512;19.054;2023-09-08T12:01:10;9.20;;;4.93;;
75890;SDS011;64571;47.512;19.054;2023-09-08T12:04:16;11.18;;;4.43;;
75890;SDS011;64571;47.512;19.054;2023-09-08T12:07:21;7.65;;;4.93;;
75890;SDS011;64571;47.512;19.054;2023-09-08T12:10:24;9.50;;;4.68;;
75890;SDS011;64571;47.512;19.054;2023-09-08T12:13:27;7.82;;;4.80;;
75890;SDS011;64571;47.512;19.054;2023-09-08T12:16:30;9.70;;;5.13;;
75890;SDS011;64571;47.512;19.054;2023-09-08T12:19:34;8.07;;;5.20;;
75890;SDS011;64571;47.512;19.054;2023-09-08T12:22:47;8.70;;;4.95;;
75890;SDS011;64571;47.512;19.054;2023-09-08T12:25:52;10.10;;;5.20;;
75890;SDS011;64571;47.512;19.054;2023-09-08T12:28:55;11.10;;;5.12;;
75890;SDS011;64571;47.512;19.054;2023-09-08T12:31:58;11.37;;;5.03;;
75890;SDS011;64571;47.512;19.054;2023-09-08T12:35:01;13.20;;;5.37;;
75890;SDS011;64571;47.512;19.054;2023-09-08T12:38:05;9.23;;;5.18;;
75890;SDS011;64571;47.512;19.054;2023-09-08T12:41:09;10.93;;;4.93;;
75890;SDS011;64571;47.512;19.054;2023-09-08T12:44:12;10.02;;;4.68;;
75890;SDS011;64571;47.512;19.054;2023-09-08T12:47:15;9.57;;;4.90;;
75890;SDS011;64571;47.512;19.054;2023-09-08T12:50:17;8.48;;;5.00;;
75890;SDS011;64571;47.512;19.054;2023-09-08T12:53:20;9.07;;;5.10;;
75890;SDS011;64571;47.512;19.054;2023-09-08T12:56:25;8.90;;;4.20;;
75890;SDS011;64571;47.512;19.054;2023-09-08T12:59:28;8.63;;;5.10;;
75890;SDS011;64571;47.512;19.054;2023-09-08T13:02:30;9.03;;;4.23;;
75890;SDS011;64571;47.512;19.054;2023-09-08T13:05:33;9.60;;;4.95;;
75890;SDS011;64571;47.512;19.054;2023-09-08T13:08:36;10.05;;;5.45;;
75890;SDS011;64571;47.512;19.054;2023-09-08T13:11:39;8.10;;;4.70;;
75890;SDS011;64571;47.512;19.054;2023-09-08T13:14:42;8.00;;;5.80;;
75890;SDS011;64571;47.512;19.054;2023-09-08T13:17:45;10.13;;;4.87;;
75890;SDS011;64571;47.512;19.054;2023-09-08T13:20:48;13.62;;;4.95;;
75890;SDS011;64571;47.512;19.054;2023-09-08T13:23:51;12.88;;;6.32;;
75890;SDS011;64571;47.512;19.054;2023-09-08T13:26:53;10.10;;;4.95;;
75890;SDS011;64571;47.512;19.054;2023-09-08T13:30:09;9.35;;;4.82;;
75890;SDS011;64571;47.512;19.054;2023-09-08T13:33:13;7.83;;;4.30;;
75890;SDS011;64571;47.512;19.054;2023-09-08T13:36:16;10.07;;;6.25;;
75890;SDS011;64571;47.512;19.054;2023-09-08T13:39:18;12.25;;;5.03;;
75890;SDS011;64571;47.512;19.054;2023-09-08T13:42:21;9.32;;;4.93;;
75890;SDS011;64571;47.512;19.054;2023-09-08T13:45:24;15.02;;;5.50;;
75890;SDS011;64571;47.512;19.054;2023-09-08T13:48:26;8.43;;;4.43;;
75890;SDS011;64571;47.512;19.054;2023-09-08T13:51:29;9.18;;;5.15;;
75890;SDS011;64571;47.512;19.054;2023-09-08T13:54:36;7.72;;;4.53;;
75890;SDS011;64571;47.512;19.054;2023-09-08T13:57:41;9.98;;;4.97;;
75890;SDS011;64571;47.512;19.054;2023-09-08T14:00:44;8.27;;;4.97;;
75890;SDS011;64571;47.512;19.054;2023-09-08T14:03:51;7.90;;;4.90;;
75890;SDS011;64571;47.512;19.054;2023-09-08T14:06:57;7.87;;;5.03;;
75890;SDS011;64571;47.512;19.054;2023-09-08T14:10:04;8.52;;;5.07;;
75890;SDS011;64571;47.512;19.054;2023-09-08T14:13:12;8.60;;;4.50;;
75890;SDS011;64571;47.512;19.054;2023-09-08T14:16:16;9.00;;;4.85;;
75890;SDS011;64571;47.512;19.054;2023-09-08T14:19:20;8.93;;;4.40;;
75890;SDS011;64571;47.512;19.054;2023-09-08T14:22:22;9.77;;;5.40;;
75890;SDS011;64571;47.512;19.054;2023-09-08T14:25:25;9.07;;;5.30;;
75890;SDS011;64571;47.512;19.054;2023-09-08T14:28:28;10.40;;;5.72;;
75890;SDS011;64571;47.512;19.054;2023-09-08T14:31:30;10.30;;;5.55;;
75890;SDS011;64571;47.512;19.054;2023-09-08T14:34:33;7.73;;;4.80;;
75890;SDS011;64571;47.512;19.054;2023-09-08T14:37:36;11.40;;;5.65;;
75890;SDS011;64571;47.512;19.054;2023-09-08T14:40:38;9.25;;;4.93;;
75890;SDS011;64571;47.512;19.054;2023-09-08T14:43:41;8.93;;;5.05;;
75890;SDS011;64571;47.512;19.054;2023-09-08T14:46:44;8.50;;;4.93;;
75890;SDS011;64571;47.512;19.054;2023-09-08T14:49:46;9.13;;;4.67;;
75890;SDS011;64571;47.512;19.054;2023-09-08T14:52:49;10.82;;;4.47;;
75890;SDS011;64571;47.512;19.054;2023-09-08T14:55:51;8.43;;;4.70;;
75890;SDS011;64571;47.512;19.054;2023-09-08T14:58:57;8.00;;;4.78;;
75890;SDS011;64571;47.512;19.054;2023-09-08T15:02:01;8.75;;;4.75;;
75890;SDS011;64571;47.512;19.054;2023-09-08T15:05:04;10.27;;;5.87;;
75890;SDS011;64571;47.512;19.054;2023-09-08T15:08:07;8.82;;;4.78;;
75890;SDS011;64571;47.512;19.054;2023-09-08T15:11:10;15.80;;;5.18;;
75890;SDS011;64571;47.512;19.054;2023-09-08T15:14:12;8.68;;;4.70;;
75890;SDS011;64571;47.512;19.054;2023-09-08T15:17:15;11.80;;;4.82;;
75890;SDS011;64571;47.512;19.054;2023-09-08T15:20:19;7.63;;;4.43;;
75890;SDS011;64571;47.512;19.054;2023-09-08T15:23:22;8.13;;;4.53;;
75890;SDS011;64571;47.512;19.054;2023-09-08T15:26:25;9.27;;;4.85;;
75890;SDS011;64571;47.512;19.054;2023-09-08T15:29:28;9.80;;;5.30;;
75890;SDS011;64571;47.512;19.054;2023-09-08T15:32:30;9.25;;;5.30;;
75890;SDS011;64571;47.512;19.054;2023-09-08T15:35:33;9.87;;;5.07;;
75890;SDS011;64571;47.512;19.054;2023-09-08T15:38:35;10.57;;;5.03;;
75890;SDS011;64571;47.512;19.054;2023-09-08T15:41:38;9.52;;;5.10;;
75890;SDS011;64571;47.512;19.054;2023-09-08T15:48:46;10.95;;;4.53;;
75890;SDS011;64571;47.512;19.054;2023-09-08T15:51:50;10.97;;;4.93;;
75890;SDS011;64571;47.512;19.054;2023-09-08T15:55:09;11.43;;;6.15;;
75890;SDS011;64571;47.512;19.054;2023-09-08T15:58:12;8.73;;;5.37;;
75890;SDS011;64571;47.512;19.054;2023-09-08T16:01:15;11.48;;;4.97;;
75890;SDS011;64571;47.512;19.054;2023-09-08T16:04:18;8.57;;;5.07;;
75890;SDS011;64571;47.512;19.054;2023-09-08T16:07:21;11.50;;;4.87;;
75890;SDS011;64571;47.512;19.054;2023-09-08T16:10:24;8.50;;;4.87;;
75890;SDS011;64571;47.512;19.054;2023-09-08T16:13:26;12.27;;;5.35;;
75890;SDS011;64571;47.512;19.054;2023-09-08T16:16:29;9.98;;;4.70;;
75890;SDS011;64571;47.512;19.054;2023-09-08T16:19:32;9.13;;;5.15;;
75890;SDS011;64571;47.512;19.054;2023-09-08T16:22:36;9.47;;;4.90;;
75890;SDS011;64571;47.512;19.054;2023-09-08T16:25:38;10.23;;;5.15;;
75890;SDS011;64571;47.512;19.054;2023-09-08T16:28:41;7.60;;;4.68;;
75890;SDS011;64571;47.512;19.054;2023-09-08T16:31:45;9.18;;;5.85;;
75890;SDS011;64571;47.512;19.054;2023-09-08T16:34:48;10.50;;;5.25;;
75890;SDS011;64571;47.512;19.054;2023-09-08T16:37:51;10.33;;;4.77;;
75890;SDS011;64571;47.512;19.054;2023-09-08T16:40:54;8.52;;;4.70;;
75890;SDS011;64571;47.512;19.054;2023-09-08T16:43:59;10.20;;;4.85;;
75890;SDS011;64571;47.512;19.054;2023-09-08T16:47:02;10.93;;;5.45;;
75890;SDS011;64571;47.512;19.054;2023-09-08T16:50:05;14.98;;;6.43;;
75890;SDS011;64571;47.512;19.054;2023-09-08T16:53:08;10.00;;;5.57;;
75890;SDS011;64571;47.512;19.054;2023-09-08T16:56:11;7.90;;;5.28;;
75890;SDS011;64571;47.512;19.054;2023-09-08T16:59:14;15.73;;;5.25;;
75890;SDS011;64571;47.512;19.054;2023-09-08T17:02:16;9.30;;;5.00;;
75890;SDS011;64571;47.512;19.054;2023-09-08T17:05:19;12.02;;;5.00;;
75890;SDS011;64571;47.512;19.054;2023-09-08T17:08:22;9.53;;;4.90;;
75890;SDS011;64571;47.512;19.054;2023-09-08T17:11:24;11.93;;;4.70;;
75890;SDS011;64571;47.512;19.054;2023-09-08T17:14:27;9.48;;;5.45;;
75890;SDS011;64571;47.512;19.054;2023-09-08T17:17:31;10.68;;;5.00;;
75890;SDS011;64571;47.512;19.054;2023-09-08T17:20:34;11.00;;;5.12;;
75890;SDS011;64571;47.512;19.054;2023-09-08T17:23:37;12.90;;;5.13;;
75890;SDS011;64571;47.512;19.054;2023-09-08T17:26:40;8.30;;;5.32;;
75890;SDS011;64571;47.512;19.054;2023-09-08T17:29:43;11.95;;;5.32;;
75890;SDS011;64571;47.512;19.054;2023-09-08T17:32:45;12.95;;;5.53;;
75890;SDS011;64571;47.512;19.054;2023-09-08T17:35:48;11.32;;;5.12;;
75890;SDS011;64571;47.512;19.054;2023-09-08T17:38:51;9.90;;;5.87;;
75890;SDS011;64571;47.512;19.054;2023-09-08T17:41:54;11.77;;;5.72;;
75890;SDS011;64571;47.512;19.054;2023-09-08T17:44:57;11.90;;;6.03;;
75890;SDS011;64571;47.512;19.054;2023-09-08T17:48:00;15.23;;;5.97;;
75890;SDS011;64571;47.512;19.054;2023-09-08T17:51:03;16.08;;;6.60;;
75890;SDS011;64571;47.512;19.054;2023-09-08T17:54:06;17.40;;;8.73;;
75890;SDS011;64571;47.512;19.054;2023-09-08T17:57:09;15.43;;;7.70;;
75890;SDS011;64571;47.512;19.054;2023-09-08T18:00:12;22.33;;;10.45;;
75890;SDS011;64571;47.512;19.054;2023-09-08T18:03:15;22.08;;;8.70;;
75890;SDS011;64571;47.512;19.054;2023-09-08T18:06:20;18.42;;;10.68;;